^^
Saratoga-Weather Station Historical Data
Daily Summary for July 9, 2020 Units:  Both    English   Metric
Daily Weekly Monthly Yearly Custom
  High: Low: Average:
Temperature: 52.3 °F /  11.3 °C 48.4 °F /  9.1 °C 50.2 °F /  10.1 °C
Dew Point: 51.1 °F /  10.6 °C 47.8 °F /  8.8 °C 49.6 °F /  9.8 °C
Humidity: 98% 95% 98%
Wind Speed: 8.1mph /  13km/h - 1.8mph /  2.9km/h
Wind Gust: 12mph /  19.3km/h - -
Wind- - SSE
Pressure: 30.3 in /  1024.7 hPa 30.1 in /  1017.6 hPa -
Precipitation: 0.07 in /  1.8 mm    
Historical Graphs
 
 
Tabular Data for July 9, 2020
Time Temperature Dew Point Pressure Wind Wind Speed Wind Gust Humidity Rainfall Rate (Hourly) solar
00:02 48.4 °F /  9.1 °C 47.8 °F /  8.8 °C 30.3in /  1024.7hPa Calm   2mph /  3.2km/h 98% 0in /  0.0mm 0 W/m2
00:07 48.6 °F /  9.2 °C 48 °F /  8.9 °C 30.3in /  1024.4hPa Calm   4mph /  6.4km/h 98% 0in /  0.0mm 0 W/m2
00:12 48.9 °F /  9.4 °C 48.4 °F /  9.1 °C 30.3in /  1024.4hPa NNE 2mph /  3.2km/h 3mph /  4.8km/h 98% 0in /  0.0mm 0 W/m2
00:17 49.3 °F /  9.6 °C 48.7 °F /  9.3 °C 30.2in /  1024.0hPa WNW 2mph /  3.2km/h 5mph /  8km/h 98% 0in /  0.0mm 0 W/m2
00:22 49.3 °F /  9.6 °C 48.7 °F /  9.3 °C 30.2in /  1024.0hPa SW 2mph /  3.2km/h 4mph /  6.4km/h 98% 0in /  0.0mm 0 W/m2
00:27 49.5 °F /  9.7 °C 48.9 °F /  9.4 °C 30.2in /  1024.0hPa Calm   5mph /  8km/h 98% 0in /  0.0mm 0 W/m2
00:32 49.5 °F /  9.7 °C 48.9 °F /  9.4 °C 30.2in /  1024.0hPa NE 0.9mph /  1.4km/h 2mph /  3.2km/h 98% 0.01in /  0.2mm 0 W/m2
00:37 49.5 °F /  9.7 °C 48.9 °F /  9.4 °C 30.2in /  1024.0hPa East 2mph /  3.2km/h 5mph /  8km/h 98% 0.01in /  0.2mm 0 W/m2
00:42 49.5 °F /  9.7 °C 48.9 °F /  9.4 °C 30.2in /  1024.0hPa NNE 2mph /  3.2km/h 3mph /  4.8km/h 98% 0.01in /  0.2mm 0 W/m2
00:47 49.5 °F /  9.7 °C 48.9 °F /  9.4 °C 30.2in /  1024.0hPa Calm     98% 0.01in /  0.2mm 0 W/m2
00:52 49.5 °F /  9.7 °C 48.9 °F /  9.4 °C 30.2in /  1024.0hPa NNE 0.9mph /  1.4km/h 3mph /  4.8km/h 98% 0.01in /  0.2mm 0 W/m2
00:57 49.3 °F /  9.6 °C 48.7 °F /  9.3 °C 30.2in /  1024.0hPa Calm   2mph /  3.2km/h 98% 0.01in /  0.2mm 0 W/m2
01:02 49.3 °F /  9.6 °C 48.7 °F /  9.3 °C 30.2in /  1024.0hPa NW 2mph /  3.2km/h 2mph /  3.2km/h 98% 0.01in /  0.2mm 0 W/m2
01:07 49.5 °F /  9.7 °C 48.9 °F /  9.4 °C 30.2in /  1024.0hPa Calm     98% 0.01in /  0.2mm 0 W/m2
01:12 49.5 °F /  9.7 °C 48.9 °F /  9.4 °C 30.2in /  1024.0hPa Calm   2mph /  3.2km/h 98% 0.01in /  0.2mm 0 W/m2
01:17 49.5 °F /  9.7 °C 48.9 °F /  9.4 °C 30.2in /  1024.0hPa SW 0.9mph /  1.4km/h 2mph /  3.2km/h 98% 0.01in /  0.2mm 0 W/m2
01:22 49.5 °F /  9.7 °C 48.9 °F /  9.4 °C 30.2in /  1024.0hPa Calm   2mph /  3.2km/h 98% 0.01in /  0.2mm 0 W/m2
01:27 49.5 °F /  9.7 °C 48.9 °F /  9.4 °C 30.2in /  1024.0hPa WSW 2.9mph /  4.7km/h 4mph /  6.4km/h 98% 0.01in /  0.2mm 0 W/m2
01:32 49.3 °F /  9.6 °C 48.7 °F /  9.3 °C 30.2in /  1023.7hPa Calm     98% 0in /  0.0mm 0 W/m2
01:37 49.3 °F /  9.6 °C 48.7 °F /  9.3 °C 30.2in /  1023.7hPa Calm   3mph /  4.8km/h 98% 0in /  0.0mm 0 W/m2
01:43 49.3 °F /  9.6 °C 48.7 °F /  9.3 °C 30.2in /  1023.7hPa North 0.9mph /  1.4km/h 2mph /  3.2km/h 98% 0in /  0.0mm 0 W/m2
01:48 49.3 °F /  9.6 °C 48.7 °F /  9.3 °C 30.2in /  1023.4hPa Calm     98% 0in /  0.0mm 0 W/m2
01:53 49.5 °F /  9.7 °C 48.9 °F /  9.4 °C 30.2in /  1023.4hPa Calm   4mph /  6.4km/h 98% 0in /  0.0mm 0 W/m2
01:58 49.5 °F /  9.7 °C 48.9 °F /  9.4 °C 30.2in /  1023.4hPa West 2mph /  3.2km/h 2mph /  3.2km/h 98% 0.01in /  0.2mm 0 W/m2
02:03 49.5 °F /  9.7 °C 48.9 °F /  9.4 °C 30.2in /  1023.4hPa Calm   4mph /  6.4km/h 98% 0.01in /  0.2mm 0 W/m2
02:08 49.5 °F /  9.7 °C 48.9 °F /  9.4 °C 30.2in /  1023.4hPa Calm   1mph /  1.6km/h 98% 0.01in /  0.2mm 0 W/m2
02:13 49.5 °F /  9.7 °C 48.9 °F /  9.4 °C 30.2in /  1023.4hPa Calm   3mph /  4.8km/h 98% 0.01in /  0.2mm 0 W/m2
02:18 49.5 °F /  9.7 °C 48.9 °F /  9.4 °C 30.2in /  1023.4hPa Calm   5mph /  8km/h 98% 0.01in /  0.2mm 0 W/m2
02:23 49.5 °F /  9.7 °C 48.9 °F /  9.4 °C 30.2in /  1023.4hPa Calm   2mph /  3.2km/h 98% 0.01in /  0.2mm 0 W/m2
02:28 49.5 °F /  9.7 °C 48.9 °F /  9.4 °C 30.2in /  1023.4hPa Calm     98% 0.01in /  0.2mm 0 W/m2
02:33 49.5 °F /  9.7 °C 48.9 °F /  9.4 °C 30.2in /  1023.0hPa ENE 2mph /  3.2km/h 3mph /  4.8km/h 98% 0.01in /  0.2mm 0 W/m2
02:38 49.5 °F /  9.7 °C 48.9 °F /  9.4 °C 30.2in /  1023.0hPa Calm   2mph /  3.2km/h 98% 0.01in /  0.2mm 0 W/m2
02:43 49.5 °F /  9.7 °C 48.9 °F /  9.4 °C 30.2in /  1023.0hPa NE 2.9mph /  4.7km/h 4mph /  6.4km/h 98% 0.01in /  0.2mm 0 W/m2
02:48 49.5 °F /  9.7 °C 48.9 °F /  9.4 °C 30.2in /  1023.0hPa NE 0.9mph /  1.4km/h 2mph /  3.2km/h 98% 0.01in /  0.2mm 0 W/m2
02:53 49.5 °F /  9.7 °C 48.9 °F /  9.4 °C 30.2in /  1023.0hPa NE 2.9mph /  4.7km/h 3mph /  4.8km/h 98% 0.01in /  0.2mm 0 W/m2
02:58 49.5 °F /  9.7 °C 48.9 °F /  9.4 °C 30.2in /  1023.0hPa North 2mph /  3.2km/h 3mph /  4.8km/h 98% 0in /  0.0mm 0 W/m2
03:03 49.5 °F /  9.7 °C 48.9 °F /  9.4 °C 30.2in /  1023.0hPa NNE 0.9mph /  1.4km/h 3mph /  4.8km/h 98% 0in /  0.0mm 0 W/m2
03:08 49.5 °F /  9.7 °C 48.9 °F /  9.4 °C 30.2in /  1022.7hPa NE 4mph /  6.4km/h 4mph /  6.4km/h 98% 0in /  0.0mm 0 W/m2
03:13 49.5 °F /  9.7 °C 48.9 °F /  9.4 °C 30.2in /  1022.7hPa Calm   2mph /  3.2km/h 98% 0in /  0.0mm 0 W/m2
03:18 49.5 °F /  9.7 °C 48.9 °F /  9.4 °C 30.2in /  1022.7hPa East 2mph /  3.2km/h 4mph /  6.4km/h 98% 0in /  0.0mm 0 W/m2
03:23 49.6 °F /  9.8 °C 49.1 °F /  9.5 °C 30.2in /  1022.7hPa North 2mph /  3.2km/h 2mph /  3.2km/h 98% 0in /  0.0mm 0 W/m2
03:28 49.6 °F /  9.8 °C 49.1 °F /  9.5 °C 30.2in /  1022.4hPa Calm   2mph /  3.2km/h 98% 0in /  0.0mm 0 W/m2
03:33 49.6 °F /  9.8 °C 49.1 °F /  9.5 °C 30.2in /  1022.4hPa ENE 2.9mph /  4.7km/h 5mph /  8km/h 98% 0.01in /  0.2mm 0 W/m2
03:38 49.6 °F /  9.8 °C 49.1 °F /  9.5 °C 30.2in /  1022.4hPa ESE 2.9mph /  4.7km/h 5mph /  8km/h 98% 0.01in /  0.2mm 0 W/m2
03:43 49.6 °F /  9.8 °C 49.1 °F /  9.5 °C 30.2in /  1022.4hPa ENE 0.9mph /  1.4km/h 4mph /  6.4km/h 98% 0.01in /  0.2mm 0 W/m2
03:48 49.6 °F /  9.8 °C 49.1 °F /  9.5 °C 30.2in /  1022.0hPa ENE 2mph /  3.2km/h 3mph /  4.8km/h 98% 0.01in /  0.2mm 0 W/m2
03:53 49.6 °F /  9.8 °C 49.1 °F /  9.5 °C 30.2in /  1022.0hPa NE 4.9mph /  7.9km/h 5mph /  8km/h 98% 0.01in /  0.2mm 0 W/m2
03:58 49.6 °F /  9.8 °C 49.1 °F /  9.5 °C 30.2in /  1022.0hPa ENE 0.9mph /  1.4km/h 4mph /  6.4km/h 98% 0.01in /  0.2mm 0 W/m2
04:03 49.6 °F /  9.8 °C 49.1 °F /  9.5 °C 30.2in /  1021.7hPa NE 2.9mph /  4.7km/h 3mph /  4.8km/h 98% 0.01in /  0.2mm 0 W/m2
04:08 49.6 °F /  9.8 °C 49.1 °F /  9.5 °C 30.2in /  1022.0hPa North 2mph /  3.2km/h 4mph /  6.4km/h 98% 0.01in /  0.2mm 0 W/m2
04:13 49.6 °F /  9.8 °C 49.1 °F /  9.5 °C 30.2in /  1021.7hPa Calm   2mph /  3.2km/h 98% 0.02in /  0.5mm 0 W/m2
04:18 49.6 °F /  9.8 °C 49.1 °F /  9.5 °C 30.2in /  1021.7hPa East 4mph /  6.4km/h 8mph /  12.9km/h 98% 0.02in /  0.5mm 0 W/m2
04:23 49.8 °F /  9.9 °C 49.3 °F /  9.6 °C 30.2in /  1021.7hPa Calm     98% 0.02in /  0.5mm 0 W/m2
04:28 49.8 °F /  9.9 °C 49.3 °F /  9.6 °C 30.2in /  1021.3hPa NNW 0.9mph /  1.4km/h 7mph /  11.3km/h 98% 0.02in /  0.5mm 0 W/m2
04:33 49.8 °F /  9.9 °C 49.3 °F /  9.6 °C 30.2in /  1021.3hPa NNW 4mph /  6.4km/h 4mph /  6.4km/h 98% 0.01in /  0.2mm 0 W/m2
04:39 50 °F /  10 °C 49.5 °F /  9.7 °C 30.2in /  1021.3hPa Calm     98% 0.01in /  0.2mm 0 W/m2
04:44 50 °F /  10 °C 49.5 °F /  9.7 °C 30.2in /  1021.3hPa NNW 2.9mph /  4.7km/h 5mph /  8km/h 98% 0.01in /  0.2mm 0 W/m2
04:49 50 °F /  10 °C 49.5 °F /  9.7 °C 30.2in /  1021.0hPa NE 2.9mph /  4.7km/h 3mph /  4.8km/h 98% 0.01in /  0.2mm 0 W/m2
04:54 50 °F /  10 °C 49.5 °F /  9.7 °C 30.2in /  1021.0hPa Calm   4mph /  6.4km/h 98% 0.01in /  0.2mm 0 W/m2
04:59 50 °F /  10 °C 49.5 °F /  9.7 °C 30.2in /  1021.0hPa WNW 0.9mph /  1.4km/h 4mph /  6.4km/h 98% 0.01in /  0.2mm 0 W/m2
05:04 50 °F /  10 °C 49.5 °F /  9.7 °C 30.2in /  1021.0hPa Calm   3mph /  4.8km/h 98% 0.01in /  0.2mm 0 W/m2
05:09 50.2 °F /  10.1 °C 49.6 °F /  9.8 °C 30.2in /  1021.0hPa NNW 0.9mph /  1.4km/h 4mph /  6.4km/h 98% 0.01in /  0.2mm 0 W/m2
05:14 50.2 °F /  10.1 °C 49.6 °F /  9.8 °C 30.2in /  1021.0hPa ENE 2.9mph /  4.7km/h 4mph /  6.4km/h 98% 0in /  0.0mm 0 W/m2
05:19 50.2 °F /  10.1 °C 49.6 °F /  9.8 °C 30.1in /  1020.7hPa Calm   5mph /  8km/h 98% 0in /  0.0mm 0 W/m2
05:24 50.2 °F /  10.1 °C 49.6 °F /  9.8 °C 30.1in /  1020.7hPa NNW 2.9mph /  4.7km/h 4mph /  6.4km/h 98% 0in /  0.0mm 0 W/m2
05:29 50.2 °F /  10.1 °C 49.6 °F /  9.8 °C 30.1in /  1020.7hPa NW 2.9mph /  4.7km/h 5mph /  8km/h 98% 0in /  0.0mm 0 W/m2
05:34 50.2 °F /  10.1 °C 49.6 °F /  9.8 °C 30.1in /  1020.7hPa WNW 2mph /  3.2km/h 3mph /  4.8km/h 98% 0in /  0.0mm 0 W/m2
05:39 50.2 °F /  10.1 °C 49.6 °F /  9.8 °C 30.1in /  1020.7hPa NNE 2mph /  3.2km/h 4mph /  6.4km/h 98% 0in /  0.0mm 0 W/m2
05:44 50.2 °F /  10.1 °C 49.6 °F /  9.8 °C 30.1in /  1020.7hPa ENE 2mph /  3.2km/h 5mph /  8km/h 98% 0in /  0.0mm 0 W/m2
05:49 50.2 °F /  10.1 °C 49.6 °F /  9.8 °C 30.1in /  1020.7hPa Calm   3mph /  4.8km/h 98% 0in /  0.0mm 0 W/m2
05:54 50.2 °F /  10.1 °C 49.6 °F /  9.8 °C 30.1in /  1020.7hPa ENE 2mph /  3.2km/h 2mph /  3.2km/h 98% 0in /  0.0mm 0 W/m2
05:59 50.2 °F /  10.1 °C 49.6 °F /  9.8 °C 30.1in /  1020.7hPa West 2.9mph /  4.7km/h 3mph /  4.8km/h 98% 0in /  0.0mm 0 W/m2
06:04 50.2 °F /  10.1 °C 49.6 °F /  9.8 °C 30.1in /  1020.3hPa North 0.9mph /  1.4km/h 3mph /  4.8km/h 98% 0in /  0.0mm 0 W/m2
06:10 50.4 °F /  10.2 °C 49.8 °F /  9.9 °C 30.1in /  1020.3hPa ENE 0.9mph /  1.4km/h 4mph /  6.4km/h 98% 0in /  0.0mm 0 W/m2
06:15 50.4 °F /  10.2 °C 49.8 °F /  9.9 °C 30.1in /  1020.3hPa Calm   5mph /  8km/h 98% 0in /  0.0mm 0 W/m2
06:20 50.4 °F /  10.2 °C 49.8 °F /  9.9 °C 30.1in /  1020.3hPa North 4mph /  6.4km/h 4mph /  6.4km/h 98% 0in /  0.0mm 0 W/m2
06:25 50.4 °F /  10.2 °C 49.8 °F /  9.9 °C 30.1in /  1020.3hPa West 0.9mph /  1.4km/h 4mph /  6.4km/h 98% 0in /  0.0mm 0 W/m2
06:30 50.4 °F /  10.2 °C 49.8 °F /  9.9 °C 30.1in /  1020.3hPa NW 0.9mph /  1.4km/h 2mph /  3.2km/h 98% 0in /  0.0mm 0 W/m2
06:35 50.4 °F /  10.2 °C 49.8 °F /  9.9 °C 30.1in /  1020.3hPa Calm   2mph /  3.2km/h 98% 0in /  0.0mm 0 W/m2
06:40 50.5 °F /  10.3 °C 50 °F /  10 °C 30.1in /  1020.3hPa NW 2.9mph /  4.7km/h 3mph /  4.8km/h 98% 0.01in /  0.2mm 0 W/m2
06:45 50.5 °F /  10.3 °C 50 °F /  10 °C 30.1in /  1020.3hPa SSE 2mph /  3.2km/h 4mph /  6.4km/h 98% 0.01in /  0.2mm 0 W/m2
06:50 50.5 °F /  10.3 °C 50 °F /  10 °C 30.1in /  1020.3hPa NE 6mph /  9.7km/h 6mph /  9.7km/h 98% 0.01in /  0.2mm 0 W/m2
06:55 50.5 °F /  10.3 °C 50 °F /  10 °C 30.1in /  1020.0hPa NE 4.9mph /  7.9km/h 9mph /  14.5km/h 98% 0.01in /  0.2mm 0 W/m2
07:00 50.5 °F /  10.3 °C 50 °F /  10 °C 30.1in /  1020.0hPa NE 0.9mph /  1.4km/h 4mph /  6.4km/h 98% 0.01in /  0.2mm 0 W/m2
07:05 50.5 °F /  10.3 °C 50 °F /  10 °C 30.1in /  1019.6hPa West 8mph /  12.9km/h 8mph /  12.9km/h 98% 0.01in /  0.2mm 0 W/m2
07:10 50.5 °F /  10.3 °C 50 °F /  10 °C 30.1in /  1019.6hPa NNE 4.9mph /  7.9km/h 5mph /  8km/h 98% 0.02in /  0.5mm 0 W/m2
07:15 50.5 °F /  10.3 °C 50 °F /  10 °C 30.1in /  1019.6hPa NNE 8mph /  12.9km/h 8mph /  12.9km/h 98% 0.02in /  0.5mm 0 W/m2
07:20 50.5 °F /  10.3 °C 50 °F /  10 °C 30.1in /  1019.6hPa East 4mph /  6.4km/h 9mph /  14.5km/h 98% 0.02in /  0.5mm 0 W/m2
07:25 50.5 °F /  10.3 °C 50 °F /  10 °C 30.1in /  1019.6hPa WSW 0.9mph /  1.4km/h 5mph /  8km/h 98% 0.02in /  0.5mm 0 W/m2
07:30 50.5 °F /  10.3 °C 50 °F /  10 °C 30.1in /  1019.6hPa WNW 0.9mph /  1.4km/h 11mph /  17.7km/h 98% 0.02in /  0.5mm 0 W/m2
07:35 50.5 °F /  10.3 °C 50 °F /  10 °C 30.1in /  1019.6hPa East 2mph /  3.2km/h 4mph /  6.4km/h 98% 0.02in /  0.5mm 0 W/m2
07:40 50.7 °F /  10.4 °C 50.2 °F /  10.1 °C 30.1in /  1019.6hPa East 2mph /  3.2km/h 10mph /  16.1km/h 98% 0.01in /  0.2mm 0 W/m2
07:45 50.7 °F /  10.4 °C 50.2 °F /  10.1 °C 30.1in /  1019.3hPa WNW 2mph /  3.2km/h 4mph /  6.4km/h 98% 0.01in /  0.2mm 0 W/m2
07:50 50.7 °F /  10.4 °C 50.2 °F /  10.1 °C 30.1in /  1019.3hPa NNE 2mph /  3.2km/h 8mph /  12.9km/h 98% 0.01in /  0.2mm 0 W/m2
07:55 50.7 °F /  10.4 °C 49.8 °F /  9.9 °C 30.1in /  1019.3hPa West 2.9mph /  4.7km/h 8mph /  12.9km/h 97% 0.01in /  0.2mm 0 W/m2
08:00 50.7 °F /  10.4 °C 49.8 °F /  9.9 °C 30.1in /  1019.3hPa NNW 4mph /  6.4km/h 4mph /  6.4km/h 97% 0.01in /  0.2mm 0 W/m2
08:05 50.5 °F /  10.3 °C 49.6 °F /  9.8 °C 30.1in /  1019.3hPa SSW 0.9mph /  1.4km/h 2mph /  3.2km/h 97% 0.01in /  0.2mm 0 W/m2
08:10 50.5 °F /  10.3 °C 49.6 °F /  9.8 °C 30.1in /  1019.3hPa Calm   4mph /  6.4km/h 97% 0.01in /  0.2mm 0 W/m2
08:15 50.5 °F /  10.3 °C 49.6 °F /  9.8 °C 30.1in /  1019.0hPa NNW 0.9mph /  1.4km/h 4mph /  6.4km/h 97% 0.01in /  0.2mm 0 W/m2
08:20 50.5 °F /  10.3 °C 49.6 °F /  9.8 °C 30.1in /  1019.0hPa West 0.9mph /  1.4km/h 4mph /  6.4km/h 97% 0.01in /  0.2mm 0 W/m2
08:25 50.5 °F /  10.3 °C 49.6 °F /  9.8 °C 30.1in /  1019.0hPa North 2mph /  3.2km/h 8mph /  12.9km/h 97% 0.01in /  0.2mm 0 W/m2
08:30 50.5 °F /  10.3 °C 49.6 °F /  9.8 °C 30.1in /  1019.0hPa NW 4mph /  6.4km/h 8mph /  12.9km/h 97% 0.01in /  0.2mm 0 W/m2
08:35 50.5 °F /  10.3 °C 49.6 °F /  9.8 °C 30.1in /  1019.0hPa WNW 2mph /  3.2km/h 6mph /  9.7km/h 97% 0.02in /  0.5mm 0 W/m2
08:40 50.5 °F /  10.3 °C 49.6 °F /  9.8 °C 30.1in /  1019.0hPa West 2.9mph /  4.7km/h 3mph /  4.8km/h 97% 0.02in /  0.5mm 5 W/m2
08:45 50.7 °F /  10.4 °C 49.8 °F /  9.9 °C 30.1in /  1019.0hPa NW 2.9mph /  4.7km/h 12mph /  19.3km/h 97% 0.02in /  0.5mm 5 W/m2
08:50 50.7 °F /  10.4 °C 49.8 °F /  9.9 °C 30.1in /  1019.0hPa West 4mph /  6.4km/h 6mph /  9.7km/h 97% 0.02in /  0.5mm 5 W/m2
08:55 50.7 °F /  10.4 °C 49.8 °F /  9.9 °C 30.1in /  1019.0hPa West 6mph /  9.7km/h 12mph /  19.3km/h 97% 0.02in /  0.5mm 11 W/m2
09:00 50.7 °F /  10.4 °C 49.8 °F /  9.9 °C 30.1in /  1018.6hPa WSW 2.9mph /  4.7km/h 3mph /  4.8km/h 97% 0.02in /  0.5mm 12 W/m2
09:05 50.7 °F /  10.4 °C 49.8 °F /  9.9 °C 30.1in /  1018.6hPa NE 2mph /  3.2km/h 7mph /  11.3km/h 97% 0.02in /  0.5mm 14 W/m2
09:10 50.7 °F /  10.4 °C 49.8 °F /  9.9 °C 30.1in /  1018.6hPa SW 0.9mph /  1.4km/h 5mph /  8km/h 97% 0.01in /  0.2mm 16 W/m2
09:16 50.7 °F /  10.4 °C 49.8 °F /  9.9 °C 30.1in /  1018.6hPa NW 2.9mph /  4.7km/h 5mph /  8km/h 97% 0.01in /  0.2mm 19 W/m2
09:21 50.9 °F /  10.5 °C 50 °F /  10 °C 30.1in /  1019.0hPa North 2mph /  3.2km/h 4mph /  6.4km/h 97% 0.01in /  0.2mm 19 W/m2
09:26 50.9 °F /  10.5 °C 50 °F /  10 °C 30.1in /  1019.0hPa West 6mph /  9.7km/h 9mph /  14.5km/h 97% 0.01in /  0.2mm 18 W/m2
09:31 51.1 °F /  10.6 °C 50.2 °F /  10.1 °C 30.1in /  1018.6hPa WSW 2mph /  3.2km/h 8mph /  12.9km/h 97% 0in /  0.0mm 19 W/m2
09:36 51.1 °F /  10.6 °C 50.2 °F /  10.1 °C 30.1in /  1018.6hPa WNW 0.9mph /  1.4km/h 9mph /  14.5km/h 97% 0in /  0.0mm 21 W/m2
09:41 51.1 °F /  10.6 °C 50.2 °F /  10.1 °C 30.1in /  1018.6hPa NW 2mph /  3.2km/h 5mph /  8km/h 97% 0.01in /  0.2mm 28 W/m2
09:46 51.1 °F /  10.6 °C 50.2 °F /  10.1 °C 30.1in /  1018.6hPa North 2.9mph /  4.7km/h 8mph /  12.9km/h 97% 0.01in /  0.2mm 28 W/m2
09:51 51.1 °F /  10.6 °C 50.2 °F /  10.1 °C 30.1in /  1018.6hPa Calm   1mph /  1.6km/h 97% 0.01in /  0.2mm 30 W/m2
09:56 51.1 °F /  10.6 °C 50.2 °F /  10.1 °C 30.1in /  1018.6hPa NNW 4mph /  6.4km/h 9mph /  14.5km/h 97% 0.01in /  0.2mm 42 W/m2
10:01 51.3 °F /  10.7 °C 50.4 °F /  10.2 °C 30.1in /  1018.6hPa WNW 2.9mph /  4.7km/h 4mph /  6.4km/h 97% 0.01in /  0.2mm 44 W/m2
10:06 51.3 °F /  10.7 °C 50.4 °F /  10.2 °C 30.1in /  1018.6hPa WSW 2.9mph /  4.7km/h 4mph /  6.4km/h 97% 0.01in /  0.2mm 33 W/m2
10:11 51.3 °F /  10.7 °C 50.4 °F /  10.2 °C 30.1in /  1018.6hPa NNE 2.9mph /  4.7km/h 7mph /  11.3km/h 97% 0.01in /  0.2mm 35 W/m2
10:16 51.4 °F /  10.8 °C 50.4 °F /  10.2 °C 30.1in /  1018.6hPa Calm   9mph /  14.5km/h 96% 0.01in /  0.2mm 32 W/m2
10:21 51.4 °F /  10.8 °C 50.4 °F /  10.2 °C 30.1in /  1018.6hPa West 2.9mph /  4.7km/h 6mph /  9.7km/h 96% 0.01in /  0.2mm 32 W/m2
10:26 51.4 °F /  10.8 °C 50.4 °F /  10.2 °C 30.1in /  1018.6hPa Calm   4mph /  6.4km/h 96% 0.01in /  0.2mm 35 W/m2
10:31 51.4 °F /  10.8 °C 50.4 °F /  10.2 °C 30.1in /  1018.6hPa Calm   3mph /  4.8km/h 96% 0.01in /  0.2mm 44 W/m2
10:36 51.6 °F /  10.9 °C 50.5 °F /  10.3 °C 30.1in /  1018.3hPa Calm   10mph /  16.1km/h 96% 0.01in /  0.2mm 40 W/m2
10:41 51.6 °F /  10.9 °C 50.5 °F /  10.3 °C 30.1in /  1018.6hPa South 2.9mph /  4.7km/h 9mph /  14.5km/h 96% 0in /  0.0mm 37 W/m2
10:46 51.6 °F /  10.9 °C 50.5 °F /  10.3 °C 30.1in /  1018.3hPa Calm   10mph /  16.1km/h 96% 0in /  0.0mm 32 W/m2
10:51 51.8 °F /  11 °C 50.7 °F /  10.4 °C 30.1in /  1018.3hPa WSW 2.9mph /  4.7km/h 4mph /  6.4km/h 96% 0in /  0.0mm 37 W/m2
10:56 51.8 °F /  11 °C 50.7 °F /  10.4 °C 30.1in /  1018.3hPa NNE 2mph /  3.2km/h 2mph /  3.2km/h 96% 0in /  0.0mm 63 W/m2
11:01 52 °F /  11.1 °C 50.9 °F /  10.5 °C 30.1in /  1018.3hPa NW 0.9mph /  1.4km/h 4mph /  6.4km/h 96% 0in /  0.0mm 63 W/m2
11:06 52 °F /  11.1 °C 50.9 °F /  10.5 °C 30.1in /  1018.3hPa NE 0.9mph /  1.4km/h 8mph /  12.9km/h 96% 0in /  0.0mm 60 W/m2
11:11 52.2 °F /  11.2 °C 51.1 °F /  10.6 °C 30.1in /  1018.3hPa WNW 0.9mph /  1.4km/h 10mph /  16.1km/h 96% 0in /  0.0mm 53 W/m2
11:16 52.2 °F /  11.2 °C 51.1 °F /  10.6 °C 30.1in /  1018.0hPa Calm   2mph /  3.2km/h 96% 0in /  0.0mm 46 W/m2
11:21 52.2 °F /  11.2 °C 50.7 °F /  10.4 °C 30.1in /  1018.0hPa NE 2.9mph /  4.7km/h 10mph /  16.1km/h 95% 0in /  0.0mm 54 W/m2
11:26 52.3 °F /  11.3 °C 50.9 °F /  10.5 °C 30.1in /  1018.0hPa NNE 8.1mph /  13km/h 8mph /  12.9km/h 95% 0in /  0.0mm 60 W/m2
11:31 52.3 °F /  11.3 °C 50.9 °F /  10.5 °C 30.1in /  1017.6hPa Calm   9mph /  14.5km/h 95% 0in /  0.0mm 60 W/m2
Juneau County Weather
Compliments of Weather Underground - 4 mb